PWSweather.com
Personal Weather Stations
Station Observations
UISISLE1
Newport, Isle ofWight, ISLE OF WIGHT PO30 2JX

NewportIsle ofWight, ISLE OF WIGHT PO30 2JX

Lat: 50.72, Lon: -1.27

Elevation: 45

Station Type: Davis Vantage Pro Plus

http://www.isleofwightweather.co.uk

High Low Average
Temperature 44.5°F6.9°C 40.2°F4.6°C 43.1°F6.2°C
Dew Point 42.5°F5.8°C 38.1°F3.4°C 40.9°F4.9°C
Winds 7.6 mph 12.2 kmh Calm Calm 2.0 mph ESE3.2 kmh ESE
Wind Gusts 13.0 mph20.9 kmh -- 5.0 mph8.0 kmh
Humidity 94% 91% 92%
Pressure 29.84 in1010.5 mb 29.73 in1006.8 mb -
Precipitation 0.06 in1.5 mm - -
Hour Temp Dew Point Humidity Winds Wind Gusts Pressure Precip Precip Rate Daily Precip Total
09:30 AM 42.9°F6.1°C 41.3°F5.2°C 94% 0.5 mph ESE0.8 kmh ESE 4.0 mph6.4 kmh 29.77 in1008.1 mb - 0.00 in0.0 mm 0.06 in1.5 mm
09:45 AM 43.0°F6.1°C 41.4°F5.2°C 94% Calm Calm -- 29.77 in1008.1 mb - 0.00 in0.0 mm 0.06 in1.5 mm
10:00 AM 43.1°F6.2°C 41.5°F5.3°C 94% 1.2 mph SE1.9 kmh SE 4.0 mph6.4 kmh 29.77 in1008.1 mb - 0.00 in0.0 mm 0.06 in1.5 mm
10:15 AM 43.3°F6.3°C 41.7°F5.4°C 94% 2.0 mph SE3.2 kmh SE 4.0 mph6.4 kmh 29.77 in1008.1 mb - 0.00 in0.0 mm 0.06 in1.5 mm
10:30 AM 43.4°F6.3°C 41.8°F5.4°C 94% Calm Calm -- 29.77 in1008.1 mb - 0.00 in0.0 mm 0.06 in1.5 mm
10:45 AM 43.5°F6.4°C 41.9°F5.5°C 94% 1.6 mph SE2.6 kmh SE 2.0 mph3.2 kmh 29.77 in1008.1 mb - 0.00 in0.0 mm 0.06 in1.5 mm
11:00 AM 43.5°F6.4°C 41.9°F5.5°C 94% 1.4 mph SE2.3 kmh SE 5.0 mph8.0 kmh 29.77 in1008.1 mb - 0.00 in0.0 mm 0.06 in1.5 mm
11:15 AM 43.6°F6.4°C 42.0°F5.6°C 94% 0.8 mph SE1.3 kmh SE 4.0 mph6.4 kmh 29.76 in1007.8 mb - 0.00 in0.0 mm 0.06 in1.5 mm
11:30 AM 43.7°F6.5°C 42.1°F5.6°C 94% 0.3 mph SE0.5 kmh SE 4.0 mph6.4 kmh 29.76 in1007.8 mb - 0.00 in0.0 mm 0.06 in1.5 mm
11:45 AM 43.8°F6.6°C 42.2°F5.7°C 94% 0.7 mph S1.1 kmh S 2.0 mph3.2 kmh 29.76 in1007.8 mb - 0.00 in0.0 mm 0.06 in1.5 mm
12:00 PM 43.9°F6.6°C 42.3°F5.7°C 94% 3.2 mph SE5.1 kmh SE 4.0 mph6.4 kmh 29.76 in1007.8 mb - 0.00 in0.0 mm 0.06 in1.5 mm
12:15 PM 43.9°F6.6°C 42.3°F5.7°C 94% 2.1 mph S3.4 kmh S 4.0 mph6.4 kmh 29.75 in1007.5 mb - 0.00 in0.0 mm 0.06 in1.5 mm
12:30 PM 43.9°F6.6°C 42.0°F5.6°C 93% 0.1 mph SSE0.2 kmh SSE 6.0 mph9.7 kmh 29.75 in1007.5 mb - 0.00 in0.0 mm 0.06 in1.5 mm
12:45 PM 44.0°F6.7°C 42.1°F5.6°C 93% 3.9 mph SE6.3 kmh SE 9.0 mph14.5 kmh 29.74 in1007.1 mb - 0.00 in0.0 mm 0.06 in1.5 mm
01:00 PM 44.3°F6.8°C 42.4°F5.8°C 93% 2.3 mph SSE3.7 kmh SSE 5.0 mph8.0 kmh 29.74 in1007.1 mb - 0.00 in0.0 mm 0.06 in1.5 mm
01:15 PM 44.4°F6.9°C 42.5°F5.8°C 93% 2.3 mph SSE3.7 kmh SSE 5.0 mph8.0 kmh 29.74 in1007.1 mb - 0.00 in0.0 mm 0.06 in1.5 mm
01:30 PM 44.5°F6.9°C 42.3°F5.7°C 92% 0.4 mph S0.6 kmh S -- 29.73 in1006.8 mb - 0.00 in0.0 mm 0.06 in1.5 mm
01:45 PM 44.4°F6.9°C 42.2°F5.7°C 92% 2.1 mph SE3.4 kmh SE 4.0 mph6.4 kmh 29.73 in1006.8 mb - 0.00 in0.0 mm 0.06 in1.5 mm
02:00 PM 44.3°F6.8°C 42.1°F5.6°C 92% 1.3 mph E2.1 kmh E 8.0 mph12.9 kmh 29.73 in1006.8 mb - 0.00 in0.0 mm 0.06 in1.5 mm
02:15 PM 44.3°F6.8°C 42.1°F5.6°C 92% 1.5 mph SE2.4 kmh SE 3.0 mph4.8 kmh 29.73 in1006.8 mb - 0.00 in0.0 mm 0.06 in1.5 mm
02:30 PM 44.3°F6.8°C 42.1°F5.6°C 92% 3.8 mph SE6.1 kmh SE 5.0 mph8.0 kmh 29.73 in1006.8 mb - 0.00 in0.0 mm 0.06 in1.5 mm
02:45 PM 44.2°F6.8°C 41.7°F5.4°C 91% 0.1 mph ESE0.2 kmh ESE -- 29.73 in1006.8 mb - 0.00 in0.0 mm 0.06 in1.5 mm
03:00 PM 44.2°F6.8°C 41.7°F5.4°C 91% 2.8 mph E4.5 kmh E 8.0 mph12.9 kmh 29.73 in1006.8 mb - 0.00 in0.0 mm 0.06 in1.5 mm
03:15 PM 44.1°F6.7°C 41.6°F5.3°C 91% 1.0 mph SE1.6 kmh SE 4.0 mph6.4 kmh 29.73 in1006.8 mb - 0.00 in0.0 mm 0.06 in1.5 mm
03:30 PM 44.0°F6.7°C 41.5°F5.3°C 91% 3.2 mph E5.1 kmh E 7.0 mph11.3 kmh 29.73 in1006.8 mb - 0.00 in0.0 mm 0.06 in1.5 mm
03:45 PM 43.9°F6.6°C 41.4°F5.2°C 91% Calm Calm -- 29.74 in1007.1 mb - 0.00 in0.0 mm 0.06 in1.5 mm
04:00 PM 43.8°F6.6°C 41.3°F5.2°C 91% Calm Calm -- 29.74 in1007.1 mb - 0.00 in0.0 mm 0.06 in1.5 mm
04:15 PM 43.7°F6.5°C 41.2°F5.1°C 91% Calm Calm 4.0 mph6.4 kmh 29.74 in1007.1 mb - 0.00 in0.0 mm 0.06 in1.5 mm
04:30 PM 43.6°F6.4°C 41.1°F5.1°C 91% 0.5 mph E0.8 kmh E -- 29.74 in1007.1 mb - 0.00 in0.0 mm 0.06 in1.5 mm
04:45 PM 43.6°F6.4°C 41.1°F5.1°C 91% 0.5 mph E0.8 kmh E 4.0 mph6.4 kmh 29.74 in1007.1 mb - 0.00 in0.0 mm 0.06 in1.5 mm
05:00 PM 43.5°F6.4°C 41.0°F5.0°C 91% Calm Calm 2.0 mph3.2 kmh 29.75 in1007.5 mb - 0.00 in0.0 mm 0.06 in1.5 mm
05:15 PM 43.4°F6.3°C 40.9°F4.9°C 91% Calm Calm 2.0 mph3.2 kmh 29.75 in1007.5 mb - 0.00 in0.0 mm 0.06 in1.5 mm
05:30 PM 43.3°F6.3°C 40.8°F4.9°C 91% Calm Calm -- 29.75 in1007.5 mb - 0.00 in0.0 mm 0.06 in1.5 mm
05:45 PM 43.3°F6.3°C 40.8°F4.9°C 91% 2.3 mph ESE3.7 kmh ESE 6.0 mph9.7 kmh 29.76 in1007.8 mb - 0.00 in0.0 mm 0.06 in1.5 mm
06:00 PM 43.2°F6.2°C 41.0°F5.0°C 92% 0.5 mph E0.8 kmh E 1.0 mph1.6 kmh 29.76 in1007.8 mb - 0.00 in0.0 mm 0.06 in1.5 mm
06:15 PM 43.1°F6.2°C 40.9°F4.9°C 92% 1.6 mph E2.6 kmh E 2.0 mph3.2 kmh 29.76 in1007.8 mb - 0.00 in0.0 mm 0.06 in1.5 mm
06:30 PM 43.0°F6.1°C 40.8°F4.9°C 92% 1.6 mph E2.6 kmh E 4.0 mph6.4 kmh 29.76 in1007.8 mb - 0.00 in0.0 mm 0.06 in1.5 mm
06:45 PM 43.0°F6.1°C 40.8°F4.9°C 92% 2.6 mph ESE4.2 kmh ESE 3.0 mph4.8 kmh 29.76 in1007.8 mb - 0.00 in0.0 mm 0.06 in1.5 mm
07:00 PM 42.9°F6.1°C 40.7°F4.8°C 92% 2.2 mph E3.5 kmh E 5.0 mph8.0 kmh 29.77 in1008.1 mb - 0.00 in0.0 mm 0.06 in1.5 mm
07:15 PM 42.8°F6.0°C 40.7°F4.8°C 92% 1.6 mph E2.6 kmh E 4.0 mph6.4 kmh 29.77 in1008.1 mb - 0.00 in0.0 mm 0.06 in1.5 mm
07:30 PM 42.8°F6.0°C 40.6°F4.8°C 92% 1.7 mph E2.7 kmh E 5.0 mph8.0 kmh 29.77 in1008.1 mb - 0.00 in0.0 mm 0.06 in1.5 mm
07:45 PM 42.7°F5.9°C 40.5°F4.7°C 92% 3.9 mph E6.3 kmh E 7.0 mph11.3 kmh 29.78 in1008.5 mb - 0.00 in0.0 mm 0.06 in1.5 mm
08:00 PM 42.7°F5.9°C 40.5°F4.7°C 92% 2.6 mph SE4.2 kmh SE 6.0 mph9.7 kmh 29.78 in1008.5 mb - 0.00 in0.0 mm 0.06 in1.5 mm
08:15 PM 42.6°F5.9°C 40.5°F4.7°C 92% 1.5 mph E2.4 kmh E 1.0 mph1.6 kmh 29.79 in1008.8 mb - 0.00 in0.0 mm 0.06 in1.5 mm
08:30 PM 42.6°F5.9°C 40.4°F4.7°C 92% 2.1 mph ESE3.4 kmh ESE 6.0 mph9.7 kmh 29.79 in1008.8 mb - 0.00 in0.0 mm 0.06 in1.5 mm
08:45 PM 42.5°F5.8°C 40.3°F4.6°C 92% 2.8 mph E4.5 kmh E 6.0 mph9.7 kmh 29.80 in1009.1 mb - 0.00 in0.0 mm 0.06 in1.5 mm
09:00 PM 42.3°F5.7°C 40.1°F4.5°C 92% 4.5 mph E7.2 kmh E 8.0 mph12.9 kmh 29.80 in1009.1 mb - 0.00 in0.0 mm 0.06 in1.5 mm
09:15 PM 42.1°F5.6°C 39.9°F4.4°C 92% 3.0 mph ENE4.8 kmh ENE 5.0 mph8.0 kmh 29.81 in1009.5 mb - 0.00 in0.0 mm 0.06 in1.5 mm
09:30 PM 41.9°F5.5°C 39.7°F4.3°C 92% 3.0 mph ENE4.8 kmh ENE 7.0 mph11.3 kmh 29.81 in1009.5 mb - 0.00 in0.0 mm 0.06 in1.5 mm
09:45 PM 41.8°F5.4°C 39.6°F4.2°C 92% 4.3 mph ENE6.9 kmh ENE 6.2 mph10.0 kmh 29.81 in1009.5 mb - 0.00 in0.0 mm 0.06 in1.5 mm
10:00 PM 41.4°F5.2°C 39.3°F4.1°C 92% 7.6 mph E12.2 kmh E 12.0 mph19.3 kmh 29.81 in1009.5 mb - 0.00 in0.0 mm 0.06 in1.5 mm
10:15 PM 41.3°F5.2°C 39.2°F4.0°C 92% 4.5 mph E7.2 kmh E 11.0 mph17.7 kmh 29.82 in1009.8 mb - 0.00 in0.0 mm 0.06 in1.5 mm
10:30 PM 41.1°F5.1°C 39.0°F3.9°C 92% 5.1 mph E8.2 kmh E 8.0 mph12.9 kmh 29.82 in1009.8 mb - 0.00 in0.0 mm 0.06 in1.5 mm
10:45 PM 41.0°F5.0°C 38.9°F3.8°C 92% 5.4 mph ENE8.7 kmh ENE 8.0 mph12.9 kmh 29.82 in1009.8 mb - 0.00 in0.0 mm 0.06 in1.5 mm
11:00 PM 40.7°F4.8°C 38.6°F3.7°C 92% 6.9 mph ENE11.1 kmh ENE 13.0 mph20.9 kmh 29.83 in1010.2 mb - 0.00 in0.0 mm 0.06 in1.5 mm
11:15 PM 40.5°F4.7°C 38.4°F3.6°C 92% 5.3 mph E8.5 kmh E 7.2 mph11.6 kmh 29.83 in1010.2 mb - 0.00 in0.0 mm 0.06 in1.5 mm
11:30 PM 40.4°F4.7°C 38.3°F3.5°C 92% 3.6 mph NE5.8 kmh NE 8.0 mph12.9 kmh 29.84 in1010.5 mb - 0.00 in0.0 mm 0.06 in1.5 mm
11:45 PM 40.2°F4.6°C 38.1°F3.4°C 92% 6.1 mph NE9.8 kmh NE 7.0 mph11.3 kmh 29.84 in1010.5 mb - 0.00 in0.0 mm 0.06 in1.5 mm